Ouray, CO

11:43 AM MST on December 02, 2016 (GMT -0700)
Ouray | | Change Station

Elev 7736 ft 38.03 °N, 107.67 °W | Updated 7 seconds ago

Overcast
Overcast
24.5 °F
Feels Like 16 °F
N
7.0
Wind Variable Wind from North
Gusts 8.0 mph

Today
High -- | Low -- °F
--% Chance of Precip.
Yesterday
High -- | Low -- °F
Precip. -- in
Pressure 29.99 in
Visibility 10.0 miles
Clouds Mostly Cloudy 2200 ft
Overcast 3100 ft
Windchill 16 °F
Dew Point 14 °F
Humidity 65%
Rainfall 0.00 in
Snow Depth Not available.
7:09 AM 4:51 PM
Waxing Crescent, 10% visible
METAR KTEX 021835Z AUTO 00000KT 10SM BKN022 OVC031 M03/M09 A2999 RMK AO2 T10331086
Pressure 29.99 in
Visibility 10.0 miles
Clouds Mostly Cloudy 2200 ft
Overcast 3100 ft
Windchill 16 °F
Dew Point 14 °F
Humidity 65%
Rainfall 0.00 in
Snow Depth Not available.
7:09 AM 4:51 PM
Waxing Crescent, 10% visible
METAR KTEX 021835Z AUTO 00000KT 10SM BKN022 OVC031 M03/M09 A2999 RMK AO2 T10331086

10-Day Weather Forecast

Almanac

Astronomy

Dec. 02, 2016 Rise Set
Actual Time
Civil Twilight
Nautical Twilight
Astronomical Twilight
Moon
Length of Visible Light
Length of Day
Tomorrow will be .
, % of the Moon is Illuminated

Today's Extremes

State Highs State Lows

Community

WunderPhotos

Upload Photos

1,955,342 photos uploaded!

WunderBlog® & News

Nearby

Air Quality

  Air Quality AQ Index Pollutant
Not available.

Snow Depth

Station Depth Elevation

Earthquake Activity

City Distance Mag. Time & Date
Minimum magnitude displayed is 2.5.

Coastal Water Temperatures

Place Temperature

Stations

Nearby Weather Stations

Station Location Temp. Windchill Dew Point Humidity Wind Precip. Elev Updated Type
                   

Watches & Warnings

There are currently no watches in effect.